sensor_id;sensor_type;location;lat;lon;timestamp;P1;durP1;ratioP1;P2;durP2;ratioP2
63653;SDS011;49809;47.418;19.080;2023-12-20T00:01:21;29.70;;;11.10;;
63653;SDS011;49809;47.418;19.080;2023-12-20T00:04:25;32.67;;;12.20;;
63653;SDS011;49809;47.418;19.080;2023-12-20T00:07:42;31.00;;;11.85;;
63653;SDS011;49809;47.418;19.080;2023-12-20T00:10:47;28.40;;;11.70;;
63653;SDS011;49809;47.418;19.080;2023-12-20T00:13:51;35.17;;;11.32;;
63653;SDS011;49809;47.418;19.080;2023-12-20T00:17:15;34.20;;;10.82;;
63653;SDS011;49809;47.418;19.080;2023-12-20T00:20:18;29.80;;;10.77;;
63653;SDS011;49809;47.418;19.080;2023-12-20T00:23:24;29.30;;;9.73;;
63653;SDS011;49809;47.418;19.080;2023-12-20T00:26:28;29.95;;;10.68;;
63653;SDS011;49809;47.418;19.080;2023-12-20T00:29:34;33.53;;;10.32;;
63653;SDS011;49809;47.418;19.080;2023-12-20T00:32:41;26.15;;;9.77;;
63653;SDS011;49809;47.418;19.080;2023-12-20T00:35:50;30.10;;;9.55;;
63653;SDS011;49809;47.418;19.080;2023-12-20T00:38:54;28.85;;;10.38;;
63653;SDS011;49809;47.418;19.080;2023-12-20T00:41:58;24.58;;;9.65;;
63653;SDS011;49809;47.418;19.080;2023-12-20T00:45:04;28.50;;;9.63;;
63653;SDS011;49809;47.418;19.080;2023-12-20T00:48:08;32.00;;;9.75;;
63653;SDS011;49809;47.418;19.080;2023-12-20T00:51:12;35.30;;;9.85;;
63653;SDS011;49809;47.418;19.080;2023-12-20T00:54:48;36.40;;;9.77;;
63653;SDS011;49809;47.418;19.080;2023-12-20T00:57:52;27.25;;;9.68;;
63653;SDS011;49809;47.418;19.080;2023-12-20T01:00:56;39.03;;;10.70;;
63653;SDS011;49809;47.418;19.080;2023-12-20T01:04:02;25.88;;;9.75;;
63653;SDS011;49809;47.418;19.080;2023-12-20T01:07:06;25.42;;;9.68;;
63653;SDS011;49809;47.418;19.080;2023-12-20T01:10:11;34.95;;;10.75;;
63653;SDS011;49809;47.418;19.080;2023-12-20T01:13:15;31.87;;;10.57;;
63653;SDS011;49809;47.418;19.080;2023-12-20T01:16:19;39.67;;;10.60;;
63653;SDS011;49809;47.418;19.080;2023-12-20T01:19:22;32.45;;;10.25;;
63653;SDS011;49809;47.418;19.080;2023-12-20T01:22:28;38.33;;;10.52;;
63653;SDS011;49809;47.418;19.080;2023-12-20T01:25:31;42.20;;;10.50;;
63653;SDS011;49809;47.418;19.080;2023-12-20T01:28:35;33.25;;;11.65;;
63653;SDS011;49809;47.418;19.080;2023-12-20T01:31:39;31.27;;;11.77;;
63653;SDS011;49809;47.418;19.080;2023-12-20T01:34:50;36.25;;;11.57;;
63653;SDS011;49809;47.418;19.080;2023-12-20T01:37:54;41.65;;;12.13;;
63653;SDS011;49809;47.418;19.080;2023-12-20T01:41:02;41.83;;;11.20;;
63653;SDS011;49809;47.418;19.080;2023-12-20T01:44:33;46.30;;;12.73;;
63653;SDS011;49809;47.418;19.080;2023-12-20T01:47:40;35.78;;;12.45;;
63653;SDS011;49809;47.418;19.080;2023-12-20T01:50:45;46.03;;;11.77;;
63653;SDS011;49809;47.418;19.080;2023-12-20T01:53:51;30.60;;;11.77;;
63653;SDS011;49809;47.418;19.080;2023-12-20T01:57:20;40.47;;;11.82;;
63653;SDS011;49809;47.418;19.080;2023-12-20T02:00:24;50.50;;;12.13;;
63653;SDS011;49809;47.418;19.080;2023-12-20T02:03:34;37.33;;;11.40;;
63653;SDS011;49809;47.418;19.080;2023-12-20T02:07:00;53.67;;;11.47;;
63653;SDS011;49809;47.418;19.080;2023-12-20T02:10:08;30.58;;;11.15;;
63653;SDS011;49809;47.418;19.080;2023-12-20T02:13:16;41.47;;;12.98;;
63653;SDS011;49809;47.418;19.080;2023-12-20T02:16:24;45.47;;;12.90;;
63653;SDS011;49809;47.418;19.080;2023-12-20T02:22:31;37.78;;;12.70;;
63653;SDS011;49809;47.418;19.080;2023-12-20T02:25:35;47.95;;;12.95;;
63653;SDS011;49809;47.418;19.080;2023-12-20T02:28:40;55.03;;;14.63;;
63653;SDS011;49809;47.418;19.080;2023-12-20T02:31:43;55.72;;;14.82;;
63653;SDS011;49809;47.418;19.080;2023-12-20T02:34:47;39.83;;;12.02;;
63653;SDS011;49809;47.418;19.080;2023-12-20T02:38:32;42.78;;;14.48;;
63653;SDS011;49809;47.418;19.080;2023-12-20T02:42:10;39.95;;;13.70;;
63653;SDS011;49809;47.418;19.080;2023-12-20T02:45:39;40.03;;;13.05;;
63653;SDS011;49809;47.418;19.080;2023-12-20T02:49:07;55.85;;;14.38;;
63653;SDS011;49809;47.418;19.080;2023-12-20T02:52:40;47.72;;;14.80;;
63653;SDS011;49809;47.418;19.080;2023-12-20T02:56:21;46.45;;;13.15;;
63653;SDS011;49809;47.418;19.080;2023-12-20T02:59:49;37.85;;;13.43;;
63653;SDS011;49809;47.418;19.080;2023-12-20T03:03:12;47.78;;;14.27;;
63653;SDS011;49809;47.418;19.080;2023-12-20T03:06:49;48.05;;;14.95;;
63653;SDS011;49809;47.418;19.080;2023-12-20T03:10:24;47.08;;;14.07;;
63653;SDS011;49809;47.418;19.080;2023-12-20T03:13:58;36.50;;;13.35;;
63653;SDS011;49809;47.418;19.080;2023-12-20T03:17:16;42.95;;;13.43;;
63653;SDS011;49809;47.418;19.080;2023-12-20T03:20:51;43.10;;;13.30;;
63653;SDS011;49809;47.418;19.080;2023-12-20T03:24:26;48.15;;;14.25;;
63653;SDS011;49809;47.418;19.080;2023-12-20T03:27:56;30.17;;;12.37;;
63653;SDS011;49809;47.418;19.080;2023-12-20T03:31:33;40.83;;;13.93;;
63653;SDS011;49809;47.418;19.080;2023-12-20T03:34:59;40.20;;;13.82;;
63653;SDS011;49809;47.418;19.080;2023-12-20T03:38:37;51.85;;;13.70;;
63653;SDS011;49809;47.418;19.080;2023-12-20T03:42:06;44.65;;;14.43;;
63653;SDS011;49809;47.418;19.080;2023-12-20T03:45:35;45.47;;;14.13;;
63653;SDS011;49809;47.418;19.080;2023-12-20T03:49:10;39.58;;;14.87;;
63653;SDS011;49809;47.418;19.080;2023-12-20T03:52:47;40.53;;;14.93;;
63653;SDS011;49809;47.418;19.080;2023-12-20T03:56:24;44.90;;;14.00;;
63653;SDS011;49809;47.418;19.080;2023-12-20T03:59:50;50.97;;;13.20;;
63653;SDS011;49809;47.418;19.080;2023-12-20T04:03:31;32.47;;;12.95;;
63653;SDS011;49809;47.418;19.080;2023-12-20T04:07:00;44.40;;;13.32;;
63653;SDS011;49809;47.418;19.080;2023-12-20T04:10:36;40.45;;;12.75;;
63653;SDS011;49809;47.418;19.080;2023-12-20T04:14:15;49.92;;;13.32;;
63653;SDS011;49809;47.418;19.080;2023-12-20T04:17:51;45.38;;;12.60;;
63653;SDS011;49809;47.418;19.080;2023-12-20T04:21:32;42.90;;;14.48;;
63653;SDS011;49809;47.418;19.080;2023-12-20T04:24:53;63.97;;;13.30;;
63653;SDS011;49809;47.418;19.080;2023-12-20T04:28:27;48.22;;;13.68;;
63653;SDS011;49809;47.418;19.080;2023-12-20T04:32:06;44.08;;;12.95;;
63653;SDS011;49809;47.418;19.080;2023-12-20T04:35:50;39.22;;;14.05;;
63653;SDS011;49809;47.418;19.080;2023-12-20T04:39:15;37.58;;;12.57;;
63653;SDS011;49809;47.418;19.080;2023-12-20T04:42:49;46.75;;;13.43;;
63653;SDS011;49809;47.418;19.080;2023-12-20T04:46:22;36.38;;;12.95;;
63653;SDS011;49809;47.418;19.080;2023-12-20T04:49:55;46.13;;;14.18;;
63653;SDS011;49809;47.418;19.080;2023-12-20T04:53:33;39.55;;;14.13;;
63653;SDS011;49809;47.418;19.080;2023-12-20T04:57:07;41.15;;;12.95;;
63653;SDS011;49809;47.418;19.080;2023-12-20T05:00:46;33.22;;;12.50;;
63653;SDS011;49809;47.418;19.080;2023-12-20T05:04:04;38.58;;;13.23;;
63653;SDS011;49809;47.418;19.080;2023-12-20T05:07:31;44.78;;;13.88;;
63653;SDS011;49809;47.418;19.080;2023-12-20T05:10:58;37.83;;;14.55;;
63653;SDS011;49809;47.418;19.080;2023-12-20T05:14:23;39.65;;;14.45;;
63653;SDS011;49809;47.418;19.080;2023-12-20T05:17:52;50.15;;;15.43;;
63653;SDS011;49809;47.418;19.080;2023-12-20T05:21:17;44.05;;;15.38;;
63653;SDS011;49809;47.418;19.080;2023-12-20T05:24:47;48.40;;;13.90;;
63653;SDS011;49809;47.418;19.080;2023-12-20T05:28:22;43.95;;;14.05;;
63653;SDS011;49809;47.418;19.080;2023-12-20T05:31:58;50.97;;;14.30;;
63653;SDS011;49809;47.418;19.080;2023-12-20T05:35:39;43.63;;;13.80;;
63653;SDS011;49809;47.418;19.080;2023-12-20T05:39:01;51.28;;;15.45;;
63653;SDS011;49809;47.418;19.080;2023-12-20T05:42:29;49.92;;;15.93;;
63653;SDS011;49809;47.418;19.080;2023-12-20T05:46:13;41.05;;;14.23;;
63653;SDS011;49809;47.418;19.080;2023-12-20T05:49:53;52.65;;;14.50;;
63653;SDS011;49809;47.418;19.080;2023-12-20T05:53:29;44.45;;;15.25;;
63653;SDS011;49809;47.418;19.080;2023-12-20T05:56:48;56.03;;;15.13;;
63653;SDS011;49809;47.418;19.080;2023-12-20T06:00:17;50.85;;;15.20;;
63653;SDS011;49809;47.418;19.080;2023-12-20T06:03:59;68.68;;;14.13;;
63653;SDS011;49809;47.418;19.080;2023-12-20T06:07:32;48.25;;;13.25;;
63653;SDS011;49809;47.418;19.080;2023-12-20T06:11:06;61.88;;;15.32;;
63653;SDS011;49809;47.418;19.080;2023-12-20T06:14:45;72.97;;;16.90;;
63653;SDS011;49809;47.418;19.080;2023-12-20T06:18:13;83.75;;;14.80;;
63653;SDS011;49809;47.418;19.080;2023-12-20T06:21:49;73.32;;;13.85;;
63653;SDS011;49809;47.418;19.080;2023-12-20T06:25:31;70.28;;;15.80;;
63653;SDS011;49809;47.418;19.080;2023-12-20T06:28:53;67.47;;;13.85;;
63653;SDS011;49809;47.418;19.080;2023-12-20T06:32:31;65.45;;;13.43;;
63653;SDS011;49809;47.418;19.080;2023-12-20T06:36:14;96.12;;;28.83;;
63653;SDS011;49809;47.418;19.080;2023-12-20T06:39:41;92.07;;;15.13;;
63653;SDS011;49809;47.418;19.080;2023-12-20T06:43:17;120.00;;;16.47;;
63653;SDS011;49809;47.418;19.080;2023-12-20T06:46:52;73.55;;;14.73;;
63653;SDS011;49809;47.418;19.080;2023-12-20T06:50:20;84.97;;;14.48;;
63653;SDS011;49809;47.418;19.080;2023-12-20T06:53:53;74.50;;;14.32;;
63653;SDS011;49809;47.418;19.080;2023-12-20T06:57:30;67.80;;;13.25;;
63653;SDS011;49809;47.418;19.080;2023-12-20T07:01:05;49.90;;;14.30;;
63653;SDS011;49809;47.418;19.080;2023-12-20T07:04:47;42.38;;;14.05;;
63653;SDS011;49809;47.418;19.080;2023-12-20T07:08:11;45.75;;;15.70;;
63653;SDS011;49809;47.418;19.080;2023-12-20T07:15:45;64.00;;;17.05;;
63653;SDS011;49809;47.418;19.080;2023-12-20T07:19:21;84.20;;;16.87;;
63653;SDS011;49809;47.418;19.080;2023-12-20T07:22:48;63.60;;;16.62;;
63653;SDS011;49809;47.418;19.080;2023-12-20T07:26:15;71.93;;;17.77;;
63653;SDS011;49809;47.418;19.080;2023-12-20T07:29:48;64.70;;;16.15;;
63653;SDS011;49809;47.418;19.080;2023-12-20T07:33:07;69.97;;;15.50;;
63653;SDS011;49809;47.418;19.080;2023-12-20T07:36:31;70.68;;;15.95;;
63653;SDS011;49809;47.418;19.080;2023-12-20T07:40:08;63.95;;;16.23;;
63653;SDS011;49809;47.418;19.080;2023-12-20T07:43:27;56.25;;;15.15;;
63653;SDS011;49809;47.418;19.080;2023-12-20T07:46:46;48.20;;;15.60;;
63653;SDS011;49809;47.418;19.080;2023-12-20T07:50:23;70.27;;;16.33;;
63653;SDS011;49809;47.418;19.080;2023-12-20T07:54:13;46.75;;;15.30;;
63653;SDS011;49809;47.418;19.080;2023-12-20T08:01:28;39.97;;;12.82;;
63653;SDS011;49809;47.418;19.080;2023-12-20T08:05:22;48.87;;;14.48;;
63653;SDS011;49809;47.418;19.080;2023-12-20T08:08:57;42.85;;;15.00;;
63653;SDS011;49809;47.418;19.080;2023-12-20T08:12:34;50.80;;;15.13;;
63653;SDS011;49809;47.418;19.080;2023-12-20T08:15:57;59.10;;;16.67;;
63653;SDS011;49809;47.418;19.080;2023-12-20T08:19:29;42.60;;;15.73;;
63653;SDS011;49809;47.418;19.080;2023-12-20T08:23:06;45.67;;;14.95;;
63653;SDS011;49809;47.418;19.080;2023-12-20T08:26:24;52.50;;;16.83;;
63653;SDS011;49809;47.418;19.080;2023-12-20T08:30:18;46.35;;;15.32;;
63653;SDS011;49809;47.418;19.080;2023-12-20T08:33:57;48.03;;;16.02;;
63653;SDS011;49809;47.418;19.080;2023-12-20T08:37:29;44.25;;;14.82;;
63653;SDS011;49809;47.418;19.080;2023-12-20T08:40:59;45.17;;;17.35;;
63653;SDS011;49809;47.418;19.080;2023-12-20T08:44:38;57.42;;;18.12;;
63653;SDS011;49809;47.418;19.080;2023-12-20T08:48:13;43.40;;;16.63;;
63653;SDS011;49809;47.418;19.080;2023-12-20T08:51:41;42.67;;;15.65;;
63653;SDS011;49809;47.418;19.080;2023-12-20T08:55:10;46.15;;;16.70;;
63653;SDS011;49809;47.418;19.080;2023-12-20T08:58:44;46.10;;;17.58;;
63653;SDS011;49809;47.418;19.080;2023-12-20T09:02:24;61.60;;;18.37;;
63653;SDS011;49809;47.418;19.080;2023-12-20T09:05:58;56.13;;;18.15;;
63653;SDS011;49809;47.418;19.080;2023-12-20T09:09:19;63.75;;;18.12;;
63653;SDS011;49809;47.418;19.080;2023-12-20T09:19:57;59.20;;;20.75;;
63653;SDS011;49809;47.418;19.080;2023-12-20T09:23:32;57.47;;;20.08;;
63653;SDS011;49809;47.418;19.080;2023-12-20T09:27:06;62.88;;;22.20;;
63653;SDS011;49809;47.418;19.080;2023-12-20T09:34:19;61.95;;;23.10;;
63653;SDS011;49809;47.418;19.080;2023-12-20T09:37:47;62.13;;;23.45;;
63653;SDS011;49809;47.418;19.080;2023-12-20T09:41:22;62.38;;;22.75;;
63653;SDS011;49809;47.418;19.080;2023-12-20T09:45:00;60.50;;;22.17;;
63653;SDS011;49809;47.418;19.080;2023-12-20T09:48:31;58.65;;;21.73;;
63653;SDS011;49809;47.418;19.080;2023-12-20T09:52:08;52.15;;;20.58;;
63653;SDS011;49809;47.418;19.080;2023-12-20T09:56:07;57.65;;;21.02;;
63653;SDS011;49809;47.418;19.080;2023-12-20T09:59:32;59.25;;;23.27;;
63653;SDS011;49809;47.418;19.080;2023-12-20T10:03:10;65.18;;;23.85;;
63653;SDS011;49809;47.418;19.080;2023-12-20T10:07:04;70.18;;;24.50;;
63653;SDS011;49809;47.418;19.080;2023-12-20T10:10:40;73.95;;;24.45;;
63653;SDS011;49809;47.418;19.080;2023-12-20T10:14:14;70.80;;;26.02;;
63653;SDS011;49809;47.418;19.080;2023-12-20T10:17:52;75.30;;;28.87;;
63653;SDS011;49809;47.418;19.080;2023-12-20T10:21:26;73.78;;;26.27;;
63653;SDS011;49809;47.418;19.080;2023-12-20T10:24:57;69.70;;;27.00;;
63653;SDS011;49809;47.418;19.080;2023-12-20T10:28:35;65.78;;;24.98;;
63653;SDS011;49809;47.418;19.080;2023-12-20T10:32:30;84.72;;;30.10;;
63653;SDS011;49809;47.418;19.080;2023-12-20T10:36:02;75.05;;;26.50;;
63653;SDS011;49809;47.418;19.080;2023-12-20T10:39:43;73.45;;;27.15;;
63653;SDS011;49809;47.418;19.080;2023-12-20T10:43:22;77.95;;;29.90;;
63653;SDS011;49809;47.418;19.080;2023-12-20T10:46:59;71.72;;;27.87;;
63653;SDS011;49809;47.418;19.080;2023-12-20T10:50:30;75.03;;;28.33;;
63653;SDS011;49809;47.418;19.080;2023-12-20T10:54:15;68.93;;;26.27;;
63653;SDS011;49809;47.418;19.080;2023-12-20T10:57:41;64.40;;;23.90;;
63653;SDS011;49809;47.418;19.080;2023-12-20T11:01:15;64.05;;;24.92;;
63653;SDS011;49809;47.418;19.080;2023-12-20T11:05:22;63.87;;;23.95;;
63653;SDS011;49809;47.418;19.080;2023-12-20T11:12:44;61.90;;;24.98;;
63653;SDS011;49809;47.418;19.080;2023-12-20T11:16:47;75.03;;;27.90;;
63653;SDS011;49809;47.418;19.080;2023-12-20T11:20:37;76.12;;;25.98;;
63653;SDS011;49809;47.418;19.080;2023-12-20T11:24:02;69.37;;;25.35;;
63653;SDS011;49809;47.418;19.080;2023-12-20T11:27:41;63.28;;;24.55;;
63653;SDS011;49809;47.418;19.080;2023-12-20T11:31:18;92.93;;;29.95;;
63653;SDS011;49809;47.418;19.080;2023-12-20T11:34:46;76.97;;;30.35;;
63653;SDS011;49809;47.418;19.080;2023-12-20T11:38:25;63.80;;;28.25;;
63653;SDS011;49809;47.418;19.080;2023-12-20T11:42:06;60.47;;;23.17;;
63653;SDS011;49809;47.418;19.080;2023-12-20T11:45:27;63.67;;;25.60;;
63653;SDS011;49809;47.418;19.080;2023-12-20T11:49:10;52.15;;;20.35;;
63653;SDS011;49809;47.418;19.080;2023-12-20T11:52:44;50.63;;;20.40;;
63653;SDS011;49809;47.418;19.080;2023-12-20T11:56:12;56.58;;;22.80;;
63653;SDS011;49809;47.418;19.080;2023-12-20T11:59:40;55.38;;;21.92;;
63653;SDS011;49809;47.418;19.080;2023-12-20T12:03:00;51.80;;;23.20;;
63653;SDS011;49809;47.418;19.080;2023-12-20T12:06:24;54.58;;;22.83;;
63653;SDS011;49809;47.418;19.080;2023-12-20T12:09:51;56.63;;;23.38;;
63653;SDS011;49809;47.418;19.080;2023-12-20T12:13:25;57.42;;;22.50;;
63653;SDS011;49809;47.418;19.080;2023-12-20T12:21:01;53.00;;;22.98;;
63653;SDS011;49809;47.418;19.080;2023-12-20T12:24:46;56.15;;;24.45;;
63653;SDS011;49809;47.418;19.080;2023-12-20T12:28:34;53.03;;;23.45;;
63653;SDS011;49809;47.418;19.080;2023-12-20T12:32:33;22.60;;;11.07;;
63653;SDS011;49809;47.418;19.080;2023-12-20T12:36:10;13.73;;;5.70;;
63653;SDS011;49809;47.418;19.080;2023-12-20T12:39:49;10.88;;;5.12;;
63653;SDS011;49809;47.418;19.080;2023-12-20T12:43:24;13.15;;;6.00;;
63653;SDS011;49809;47.418;19.080;2023-12-20T12:46:58;12.52;;;5.70;;
63653;SDS011;49809;47.418;19.080;2023-12-20T12:50:24;13.90;;;6.30;;
63653;SDS011;49809;47.418;19.080;2023-12-20T12:53:59;13.23;;;6.20;;
63653;SDS011;49809;47.418;19.080;2023-12-20T12:57:35;8.20;;;4.70;;
63653;SDS011;49809;47.418;19.080;2023-12-20T13:01:01;7.57;;;4.12;;
63653;SDS011;49809;47.418;19.080;2023-12-20T13:04:37;7.25;;;4.07;;
63653;SDS011;49809;47.418;19.080;2023-12-20T13:08:14;5.97;;;4.00;;
63653;SDS011;49809;47.418;19.080;2023-12-20T13:15:24;7.62;;;4.18;;
63653;SDS011;49809;47.418;19.080;2023-12-20T13:18:50;7.25;;;4.68;;
63653;SDS011;49809;47.418;19.080;2023-12-20T13:22:19;8.52;;;4.35;;
63653;SDS011;49809;47.418;19.080;2023-12-20T13:25:48;7.93;;;4.47;;
63653;SDS011;49809;47.418;19.080;2023-12-20T13:29:25;8.63;;;4.57;;
63653;SDS011;49809;47.418;19.080;2023-12-20T13:32:46;6.72;;;4.25;;
63653;SDS011;49809;47.418;19.080;2023-12-20T13:36:21;9.80;;;5.12;;
63653;SDS011;49809;47.418;19.080;2023-12-20T13:39:41;9.25;;;5.03;;
63653;SDS011;49809;47.418;19.080;2023-12-20T13:43:19;9.68;;;4.85;;
63653;SDS011;49809;47.418;19.080;2023-12-20T13:47:02;10.48;;;5.62;;
63653;SDS011;49809;47.418;19.080;2023-12-20T13:50:34;8.63;;;4.90;;
63653;SDS011;49809;47.418;19.080;2023-12-20T13:54:09;10.88;;;5.28;;
63653;SDS011;49809;47.418;19.080;2023-12-20T13:57:48;9.90;;;5.15;;
63653;SDS011;49809;47.418;19.080;2023-12-20T14:01:26;9.68;;;4.82;;
63653;SDS011;49809;47.418;19.080;2023-12-20T14:05:05;9.65;;;4.60;;
63653;SDS011;49809;47.418;19.080;2023-12-20T14:08:39;12.82;;;4.65;;
63653;SDS011;49809;47.418;19.080;2023-12-20T14:12:15;7.97;;;4.53;;
63653;SDS011;49809;47.418;19.080;2023-12-20T14:15:55;9.05;;;4.45;;
63653;SDS011;49809;47.418;19.080;2023-12-20T14:23:10;9.95;;;4.82;;
63653;SDS011;49809;47.418;19.080;2023-12-20T14:26:35;8.55;;;4.93;;
63653;SDS011;49809;47.418;19.080;2023-12-20T14:30:13;6.80;;;3.95;;
63653;SDS011;49809;47.418;19.080;2023-12-20T14:33:40;10.27;;;5.20;;
63653;SDS011;49809;47.418;19.080;2023-12-20T14:37:13;9.57;;;5.50;;
63653;SDS011;49809;47.418;19.080;2023-12-20T14:40:34;12.50;;;6.40;;
63653;SDS011;49809;47.418;19.080;2023-12-20T14:44:01;10.55;;;6.35;;
63653;SDS011;49809;47.418;19.080;2023-12-20T14:47:39;9.18;;;4.47;;
63653;SDS011;49809;47.418;19.080;2023-12-20T14:51:04;9.65;;;5.05;;
63653;SDS011;49809;47.418;19.080;2023-12-20T14:54:25;7.62;;;4.28;;
63653;SDS011;49809;47.418;19.080;2023-12-20T14:57:49;8.93;;;4.80;;
63653;SDS011;49809;47.418;19.080;2023-12-20T15:01:27;10.70;;;5.82;;
63653;SDS011;49809;47.418;19.080;2023-12-20T15:05:05;8.55;;;4.75;;
63653;SDS011;49809;47.418;19.080;2023-12-20T15:08:34;9.93;;;4.90;;
63653;SDS011;49809;47.418;19.080;2023-12-20T15:12:08;11.98;;;6.40;;
63653;SDS011;49809;47.418;19.080;2023-12-20T15:15:37;12.93;;;6.28;;
63653;SDS011;49809;47.418;19.080;2023-12-20T15:19:14;7.97;;;4.50;;
63653;SDS011;49809;47.418;19.080;2023-12-20T15:22:45;9.07;;;5.07;;
63653;SDS011;49809;47.418;19.080;2023-12-20T15:26:23;14.83;;;5.17;;
63653;SDS011;49809;47.418;19.080;2023-12-20T15:29:52;12.20;;;5.18;;
63653;SDS011;49809;47.418;19.080;2023-12-20T15:33:28;11.55;;;5.43;;
63653;SDS011;49809;47.418;19.080;2023-12-20T15:37:05;7.75;;;4.30;;
63653;SDS011;49809;47.418;19.080;2023-12-20T15:40:32;6.80;;;3.65;;
63653;SDS011;49809;47.418;19.080;2023-12-20T15:44:04;5.65;;;3.25;;
63653;SDS011;49809;47.418;19.080;2023-12-20T15:47:39;11.07;;;4.93;;
63653;SDS011;49809;47.418;19.080;2023-12-20T15:51:09;8.75;;;4.45;;
63653;SDS011;49809;47.418;19.080;2023-12-20T15:54:41;7.28;;;3.87;;
63653;SDS011;49809;47.418;19.080;2023-12-20T15:58:19;9.80;;;4.75;;
63653;SDS011;49809;47.418;19.080;2023-12-20T16:01:40;6.80;;;3.55;;
63653;SDS011;49809;47.418;19.080;2023-12-20T16:05:14;7.20;;;4.05;;
63653;SDS011;49809;47.418;19.080;2023-12-20T16:08:42;7.72;;;3.95;;
63653;SDS011;49809;47.418;19.080;2023-12-20T16:12:17;9.90;;;4.70;;
63653;SDS011;49809;47.418;19.080;2023-12-20T16:15:49;7.82;;;4.28;;
63653;SDS011;49809;47.418;19.080;2023-12-20T16:19:27;8.52;;;4.62;;
63653;SDS011;49809;47.418;19.080;2023-12-20T16:22:55;7.30;;;4.28;;
63653;SDS011;49809;47.418;19.080;2023-12-20T16:26:29;8.93;;;4.43;;
63653;SDS011;49809;47.418;19.080;2023-12-20T16:29:59;6.55;;;3.90;;
63653;SDS011;49809;47.418;19.080;2023-12-20T16:33:23;7.32;;;3.80;;
63653;SDS011;49809;47.418;19.080;2023-12-20T16:37:00;7.18;;;3.87;;
63653;SDS011;49809;47.418;19.080;2023-12-20T16:40:25;5.47;;;3.37;;
63653;SDS011;49809;47.418;19.080;2023-12-20T16:43:57;9.23;;;4.70;;
63653;SDS011;49809;47.418;19.080;2023-12-20T16:47:21;8.73;;;4.97;;
63653;SDS011;49809;47.418;19.080;2023-12-20T16:50:54;8.18;;;4.40;;
63653;SDS011;49809;47.418;19.080;2023-12-20T16:54:42;7.80;;;4.62;;
63653;SDS011;49809;47.418;19.080;2023-12-20T16:58:38;7.97;;;4.65;;
63653;SDS011;49809;47.418;19.080;2023-12-20T17:06:24;10.10;;;5.50;;
63653;SDS011;49809;47.418;19.080;2023-12-20T17:10:01;9.13;;;4.80;;
63653;SDS011;49809;47.418;19.080;2023-12-20T17:13:43;8.60;;;4.60;;
63653;SDS011;49809;47.418;19.080;2023-12-20T17:17:12;9.93;;;4.53;;
63653;SDS011;49809;47.418;19.080;2023-12-20T17:20:48;9.90;;;5.22;;
63653;SDS011;49809;47.418;19.080;2023-12-20T17:24:46;7.82;;;4.72;;
63653;SDS011;49809;47.418;19.080;2023-12-20T17:28:09;8.38;;;4.60;;
63653;SDS011;49809;47.418;19.080;2023-12-20T17:31:47;7.82;;;4.25;;
63653;SDS011;49809;47.418;19.080;2023-12-20T17:35:27;9.48;;;4.47;;
63653;SDS011;49809;47.418;19.080;2023-12-20T17:39:02;7.72;;;4.10;;
63653;SDS011;49809;47.418;19.080;2023-12-20T17:42:33;12.68;;;6.70;;
63653;SDS011;49809;47.418;19.080;2023-12-20T17:46:34;14.48;;;7.37;;
63653;SDS011;49809;47.418;19.080;2023-12-20T17:50:04;7.43;;;4.40;;
63653;SDS011;49809;47.418;19.080;2023-12-20T17:53:46;6.20;;;3.45;;
63653;SDS011;49809;47.418;19.080;2023-12-20T17:56:52;9.23;;;4.28;;
63653;SDS011;49809;47.418;19.080;2023-12-20T18:00:25;9.02;;;4.97;;
63653;SDS011;49809;47.418;19.080;2023-12-20T18:03:59;11.00;;;5.70;;
63653;SDS011;49809;47.418;19.080;2023-12-20T18:07:20;11.70;;;6.45;;
63653;SDS011;49809;47.418;19.080;2023-12-20T18:10:40;13.30;;;6.45;;
63653;SDS011;49809;47.418;19.080;2023-12-20T18:14:12;10.75;;;6.28;;
63653;SDS011;49809;47.418;19.080;2023-12-20T18:17:46;12.00;;;6.03;;
63653;SDS011;49809;47.418;19.080;2023-12-20T18:21:10;11.45;;;5.68;;
63653;SDS011;49809;47.418;19.080;2023-12-20T18:24:46;10.98;;;5.95;;
63653;SDS011;49809;47.418;19.080;2023-12-20T18:28:15;12.90;;;6.60;;
63653;SDS011;49809;47.418;19.080;2023-12-20T18:31:54;12.95;;;6.40;;
63653;SDS011;49809;47.418;19.080;2023-12-20T18:35:11;14.80;;;6.97;;
63653;SDS011;49809;47.418;19.080;2023-12-20T18:38:46;13.55;;;6.53;;
63653;SDS011;49809;47.418;19.080;2023-12-20T19:05:15;26.83;;;13.00;;
63653;SDS011;49809;47.418;19.080;2023-12-20T19:28:01;13.70;;;6.97;;
63653;SDS011;49809;47.418;19.080;2023-12-20T19:39:09;15.23;;;8.40;;
63653;SDS011;49809;47.418;19.080;2023-12-20T19:46:26;16.67;;;8.90;;
63653;SDS011;49809;47.418;19.080;2023-12-20T19:50:13;16.83;;;8.32;;
63653;SDS011;49809;47.418;19.080;2023-12-20T20:02:13;13.93;;;7.62;;
63653;SDS011;49809;47.418;19.080;2023-12-20T20:24:44;15.05;;;7.20;;
63653;SDS011;49809;47.418;19.080;2023-12-20T20:28:56;15.07;;;7.50;;
63653;SDS011;49809;47.418;19.080;2023-12-20T20:32:54;13.70;;;6.93;;
63653;SDS011;49809;47.418;19.080;2023-12-20T20:36:33;15.75;;;8.43;;
63653;SDS011;49809;47.418;19.080;2023-12-20T20:44:26;18.98;;;9.13;;
63653;SDS011;49809;47.418;19.080;2023-12-20T20:48:23;18.12;;;8.18;;
63653;SDS011;49809;47.418;19.080;2023-12-20T21:03:42;19.17;;;9.45;;
63653;SDS011;49809;47.418;19.080;2023-12-20T21:07:19;19.73;;;10.98;;
